Airfield :
LOGIN :

Register | Disclaimer

   EN    FR    IT 

 










Legend :    VFR   Marginal VFR   IFR   Intensive IFR   Very Intensive IFR
Visi :
Ceiling :
>= 8 km
>= 3000ft
5 to 8 km
1000 to 3000 ft
1500m to 5 km
500 to 1000 ft
800 to 1500m
200 to 500 ft
< 800m
< 200 ft
Symbols :   Thunderstorms  Fog  Heavy snow  Heavy precipitations  Wind > 20 kt
SIGMETs :     Misc.  Thunderstorms  Icing  Turbulence  Mountain Waves  Volcanic Ashes






- Airport Elevation : 1367 ft
- IATA code : FDH


EDNY - Friedrichshafen

CURRENT METAR :
  • 290720Z 07005KT 6000 FEW023 BKN027 OVC038 06/05 Q1015

EXPIRED METARs :
  • 290650Z VRB03KT 9000 OVC023 05/05 Q1015
  • 290620Z AUTO VRB01KT 9999 3200 // BKN024/// OVC031/// 05/05 Q1015
  • 290550Z AUTO 00000KT 5000 // FEW025/// BKN030/// OVC051/// 06/05 Q1015
  • 290520Z AUTO 08003KT 4100 // SCT020/// BKN030/// OVC043/// 06/05 Q1015
  • 290450Z AUTO 09003KT 3300 // SCT019/// BKN036/// OVC048/// 06/05 Q1014

TAF TAF EDNY
Valid from the 29 at 06:00 until the 30 at 06:00 UTC


290500Z 2906/3006 VRB03KT 7000 FEW013 BKN020
TEMPO 2906/3006 4500 -RADZ BKN013
PROB30
TEMPO 2912/3006 BKN007



MET'MAP, your aeronautical weather chart ! - Copyright ORBIFLY December 2007 - Disclaimer

ORBIFLY MET'MAP TEAM :

Programming & Development : Alexandra Zaïnal
Original concept : Baudouin d'Aumeries
Technical & hardware support : Manuel Goepfert
Assistance : Marc-Olivier Méhu




SOURCES & CREDITS :

   NOAA